Time;durP1;ratioP1;P1;durP2;ratioP2;P2;SDS_P1;SDS_P2;PMS_P1;PMS_P2;Temp;Humidity;BMP_temperature;BMP_pressure;BME280_temperature;BME280_humidity;BME280_pressure;Samples;Min_cycle;Max_cycle;Signal;HPM_P1;HPM_P2
2022/11/03 00:02:16;;;;;;;9.27;2.40;;;15.00;99.90;;;;;;5089608;28;20753;-32
2022/11/03 00:04:43;;;;;;;8.23;2.10;;;15.00;99.90;;;;;;5093634;28;20199;-32
2022/11/03 00:07:10;;;;;;;11.13;2.47;;;15.00;99.90;;;;;;5083366;28;20747;-32
2022/11/03 00:09:40;;;;;;;9.33;2.67;;;15.00;99.90;;;;;;5100595;28;20292;-32
2022/11/03 00:12:07;;;;;;;8.53;1.87;;;15.00;99.90;;;;;;5088585;28;20206;-32
2022/11/03 00:14:34;;;;;;;9.00;2.30;;;15.00;99.90;;;;;;5084315;28;20557;-32
2022/11/03 00:17:01;;;;;;;7.17;2.13;;;15.00;99.90;;;;;;5101122;28;20199;-32
2022/11/03 00:19:28;;;;;;;9.60;2.40;;;15.00;99.90;;;;;;5095212;28;20245;-32
2022/11/03 00:21:59;;;;;;;6.43;1.80;;;15.10;99.90;;;;;;5084689;28;20202;-32
2022/11/03 00:24:26;;;;;;;11.40;2.50;;;15.10;99.90;;;;;;5093225;28;20256;-32
2022/11/03 00:26:53;;;;;;;9.10;2.60;;;15.10;99.90;;;;;;5102498;28;20569;-32
2022/11/03 00:29:26;;;;;;;9.00;2.33;;;15.10;99.90;;;;;;5084698;28;20199;-33
2022/11/03 00:31:53;;;;;;;7.70;2.37;;;15.10;99.90;;;;;;5100918;28;20208;-33
2022/11/03 00:34:20;;;;;;;10.23;2.10;;;15.10;99.90;;;;;;5101955;28;20290;-32
2022/11/03 00:36:47;;;;;;;7.40;2.10;;;15.10;99.90;;;;;;5099311;28;20662;-32
2022/11/03 00:39:14;;;;;;;9.63;2.27;;;15.10;99.90;;;;;;5083729;28;20191;-32
2022/11/03 00:41:43;;;;;;;9.93;2.03;;;15.10;99.90;;;;;;5086454;28;20214;-32
2022/11/03 00:44:12;;;;;;;10.87;2.43;;;15.00;99.90;;;;;;5085797;28;20217;-32
2022/11/03 00:46:40;;;;;;;7.07;1.90;;;15.00;99.90;;;;;;5086705;28;20305;-33
2022/11/03 00:49:07;;;;;;;7.83;1.93;;;15.00;99.90;;;;;;5097219;28;20229;-33
2022/11/03 00:51:34;;;;;;;9.77;2.37;;;15.10;99.90;;;;;;5102959;28;20194;-32
2022/11/03 00:54:06;;;;;;;8.27;2.03;;;15.00;99.90;;;;;;5104022;28;20303;-32
2022/11/03 00:56:43;;;;;;;8.67;2.23;;;15.10;99.90;;;;;;5089372;28;20207;-33
2022/11/03 00:59:10;;;;;;;7.00;1.87;;;15.10;99.90;;;;;;5107140;28;20259;-33
2022/11/03 01:01:42;;;;;;;9.27;2.20;;;15.10;99.90;;;;;;5091372;28;20743;-33
2022/11/03 01:07:03;;;;;;;7.80;2.00;;;15.00;99.90;;;;;;5103738;28;20201;-33
2022/11/03 01:09:36;;;;;;;8.63;2.03;;;15.00;99.90;;;;;;5092100;28;20751;-32
2022/11/03 01:12:14;;;;;;;8.47;2.07;;;15.00;99.90;;;;;;5098968;28;20198;-33
2022/11/03 01:14:44;;;;;;;9.93;2.40;;;15.00;99.90;;;;;;5088391;28;20278;-32
2022/11/03 01:17:15;;;;;;;9.03;2.20;;;15.00;99.90;;;;;;5091843;28;20293;-33
2022/11/03 01:19:42;;;;;;;9.87;2.17;;;15.00;99.90;;;;;;5097303;28;20334;-33
2022/11/03 01:22:10;;;;;;;7.30;2.53;;;15.00;99.90;;;;;;5099970;28;20720;-32
2022/11/03 01:24:41;;;;;;;8.37;1.90;;;15.00;99.90;;;;;;5095653;28;20203;-32
2022/11/03 01:27:11;;;;;;;9.70;2.17;;;15.00;99.90;;;;;;5106571;28;20217;-32
2022/11/03 01:29:40;;;;;;;11.53;2.07;;;15.00;99.90;;;;;;5106411;28;20206;-33
2022/11/03 01:32:10;;;;;;;10.10;1.87;;;15.00;99.90;;;;;;5094135;28;20259;-32
2022/11/03 01:34:37;;;;;;;8.03;2.10;;;15.00;99.90;;;;;;5105336;28;20205;-32
2022/11/03 01:37:04;;;;;;;5.00;2.20;;;15.00;99.90;;;;;;5094998;28;20222;-33
2022/11/03 01:39:34;;;;;;;10.67;2.43;;;15.00;99.90;;;;;;5097033;28;20191;-33
2022/11/03 01:42:03;;;;;;;11.20;2.30;;;15.00;99.90;;;;;;5090026;28;20267;-33
2022/11/03 01:44:42;;;;;;;7.37;1.70;;;15.00;99.90;;;;;;5101435;28;20246;-33
2022/11/03 01:47:36;;;;;;;7.27;1.83;;;15.00;99.90;;;;;;5095850;28;20195;-33
2022/11/03 01:50:23;;;;;;;8.03;2.17;;;15.00;99.90;;;;;;5097429;28;20654;-33
2022/11/03 01:52:55;;;;;;;6.40;1.97;;;15.00;99.90;;;;;;5090374;28;20222;-35
2022/11/03 01:55:30;;;;;;;9.17;2.43;;;15.00;99.90;;;;;;5089758;28;20203;-32
2022/11/03 01:58:04;;;;;;;10.23;2.20;;;15.00;99.90;;;;;;5092775;28;20672;-32
2022/11/03 02:00:31;;;;;;;9.73;2.20;;;15.00;99.90;;;;;;5103551;28;20209;-32
2022/11/03 02:02:59;;;;;;;6.23;2.00;;;15.00;99.90;;;;;;5094240;28;20201;-32
2022/11/03 02:05:28;;;;;;;7.57;2.20;;;15.00;99.90;;;;;;5094372;28;20213;-32
2022/11/03 02:08:11;;;;;;;8.50;2.30;;;15.00;99.90;;;;;;5096103;28;20230;-32
2022/11/03 02:10:40;;;;;;;6.83;1.90;;;15.00;99.90;;;;;;5090858;28;20322;-32
2022/11/03 02:13:34;;;;;;;9.00;2.50;;;15.00;99.90;;;;;;5098934;28;20234;-32
2022/11/03 02:16:01;;;;;;;9.43;1.87;;;15.00;99.90;;;;;;5097094;28;20222;-33
2022/11/03 02:18:32;;;;;;;9.50;2.57;;;15.00;99.90;;;;;;5099600;28;20210;-33
2022/11/03 02:21:24;;;;;;;8.70;2.50;;;15.00;99.90;;;;;;5078787;28;20769;-33
2022/11/03 02:24:36;;;;;;;9.97;2.80;;;15.00;99.90;;;;;;5088162;28;20580;-33
2022/11/03 02:27:03;;;;;;;8.80;2.13;;;15.00;99.90;;;;;;5076796;28;20310;-33
2022/11/03 02:29:32;;;;;;;8.47;2.10;;;15.00;99.90;;;;;;5095408;28;20305;-33
2022/11/03 02:32:10;;;;;;;10.83;2.47;;;14.90;99.90;;;;;;5100693;28;20247;-33
2022/11/03 02:34:47;;;;;;;6.93;2.00;;;14.90;99.90;;;;;;5097764;28;20886;-33
2022/11/03 02:37:20;;;;;;;7.37;2.10;;;14.90;99.90;;;;;;5084451;28;20210;-33
2022/11/03 02:39:57;;;;;;;9.17;1.97;;;14.90;99.90;;;;;;5103167;27;20208;-33
2022/11/03 02:42:25;;;;;;;6.50;1.77;;;14.90;99.90;;;;;;5110252;27;20229;-33
2022/11/03 02:44:56;;;;;;;9.50;2.37;;;14.90;99.90;;;;;;5101625;28;20573;-33
2022/11/03 02:47:26;;;;;;;6.00;1.90;;;14.90;99.90;;;;;;5082876;28;20203;-33
2022/11/03 02:49:54;;;;;;;7.60;2.20;;;14.90;99.90;;;;;;5088993;28;20236;-33
2022/11/03 02:52:46;;;;;;;9.27;2.00;;;14.90;99.90;;;;;;5093842;28;20704;-33
2022/11/03 02:55:47;;;;;;;8.13;2.30;;;14.90;99.90;;;;;;5090819;28;20588;-33
2022/11/03 02:58:52;;;;;;;6.80;2.00;;;14.90;99.90;;;;;;5086129;28;20712;-33
2022/11/03 03:01:35;;;;;;;10.00;2.50;;;14.90;99.90;;;;;;5103473;28;20571;-33
2022/11/03 03:04:08;;;;;;;6.80;1.97;;;14.90;99.90;;;;;;5090640;28;20620;-33
2022/11/03 03:06:47;;;;;;;7.40;2.03;;;14.90;99.90;;;;;;5097582;28;20197;-33
2022/11/03 03:09:23;;;;;;;4.90;1.83;;;14.90;99.90;;;;;;5098246;28;20220;-33
2022/11/03 03:11:54;;;;;;;7.00;1.90;;;14.90;99.90;;;;;;5085751;28;20201;-33
2022/11/03 03:14:26;;;;;;;5.87;2.20;;;14.90;99.90;;;;;;5092807;28;20321;-33
2022/11/03 03:17:00;;;;;;;7.53;1.90;;;14.90;99.90;;;;;;5099090;28;20318;-33
2022/11/03 03:19:46;;;;;;;7.50;1.70;;;14.90;99.90;;;;;;5088913;28;20791;-33
2022/11/03 03:22:37;;;;;;;10.20;2.20;;;14.90;99.90;;;;;;5097142;28;20316;-33
2022/11/03 03:25:20;;;;;;;6.93;2.17;;;14.90;99.90;;;;;;5104868;28;20230;-33
2022/11/03 03:27:52;;;;;;;12.07;2.50;;;14.90;99.90;;;;;;5104228;28;20198;-33
2022/11/03 03:30:20;;;;;;;9.60;2.10;;;14.90;99.90;;;;;;5096888;28;20226;-33
2022/11/03 03:32:50;;;;;;;4.50;1.57;;;14.90;99.90;;;;;;5091366;28;20191;-33
2022/11/03 03:35:24;;;;;;;5.87;1.80;;;14.90;99.90;;;;;;5087617;28;20859;-33
2022/11/03 03:37:56;;;;;;;8.67;2.03;;;14.90;99.90;;;;;;5095720;28;20202;-33
2022/11/03 03:40:39;;;;;;;9.37;1.97;;;14.90;99.90;;;;;;5095396;28;20260;-33
2022/11/03 03:43:09;;;;;;;7.77;2.40;;;14.90;99.90;;;;;;5092555;27;20191;-33
2022/11/03 03:45:37;;;;;;;5.90;1.90;;;14.90;99.90;;;;;;5112469;27;20211;-33
2022/11/03 03:48:08;;;;;;;5.57;1.70;;;14.90;99.90;;;;;;5096682;28;20197;-33
2022/11/03 03:50:38;;;;;;;6.77;2.00;;;15.00;99.90;;;;;;5101163;28;20210;-33
2022/11/03 03:53:10;;;;;;;9.23;2.10;;;15.00;99.90;;;;;;5084662;28;20219;-33
2022/11/03 03:55:47;;;;;;;10.30;2.60;;;15.00;99.90;;;;;;5084613;28;20306;-33
2022/11/03 03:58:17;;;;;;;7.13;2.10;;;15.00;99.90;;;;;;5091613;28;20248;-34
2022/11/03 04:00:44;;;;;;;8.77;1.90;;;15.00;99.90;;;;;;5087760;28;20194;-33
2022/11/03 04:03:17;;;;;;;4.43;1.80;;;15.00;99.90;;;;;;5092275;28;20288;-33
2022/11/03 04:05:45;;;;;;;9.13;2.03;;;15.00;99.90;;;;;;5094126;28;20226;-33
2022/11/03 04:08:15;;;;;;;8.53;2.10;;;15.00;99.90;;;;;;5091242;28;20211;-34
2022/11/03 04:24:37;;;;;;;5.83;1.70;;;15.00;99.90;;;;;;5093672;28;20551;-34
2022/11/03 04:27:25;;;;;;;5.83;1.50;;;15.00;99.90;;;;;;5088356;28;20195;-33
2022/11/03 04:30:16;;;;;;;9.67;2.07;;;15.00;99.90;;;;;;5096262;28;20567;-34
2022/11/03 04:32:52;;;;;;;9.57;2.03;;;15.00;99.90;;;;;;5099521;28;20308;-34
2022/11/03 04:35:22;;;;;;;8.20;2.37;;;15.00;99.90;;;;;;5099752;28;20195;-34
2022/11/03 04:38:12;;;;;;;7.20;1.70;;;15.00;99.90;;;;;;5088177;28;20246;-33
2022/11/03 04:40:53;;;;;;;6.70;1.97;;;15.10;99.90;;;;;;5065897;28;20422;-32
2022/11/03 04:43:29;;;;;;;6.60;1.90;;;15.10;99.90;;;;;;5106182;28;20198;-33
2022/11/03 04:45:56;;;;;;;6.27;2.07;;;15.10;99.90;;;;;;5092260;28;20206;-33
2022/11/03 04:48:30;;;;;;;9.43;1.80;;;15.10;99.90;;;;;;5109208;27;20214;-33
2022/11/03 04:51:01;;;;;;;9.17;1.83;;;15.10;99.90;;;;;;5092719;28;20285;-33
2022/11/03 04:53:31;;;;;;;6.27;1.73;;;15.10;99.90;;;;;;5102015;28;20270;-33
2022/11/03 04:56:01;;;;;;;5.23;1.80;;;15.10;99.90;;;;;;5089461;28;20230;-33
2022/11/03 04:58:34;;;;;;;9.93;2.03;;;15.20;99.90;;;;;;5086446;28;20194;-33
2022/11/03 05:01:03;;;;;;;8.23;2.17;;;15.20;99.90;;;;;;5094264;28;20209;-33
2022/11/03 05:03:35;;;;;;;7.03;2.17;;;15.20;99.90;;;;;;5104842;28;20692;-33
2022/11/03 05:06:15;;;;;;;6.57;1.73;;;15.20;99.90;;;;;;5103919;28;20267;-33
2022/11/03 05:08:47;;;;;;;6.10;1.67;;;15.20;99.90;;;;;;5101039;28;20210;-33
2022/11/03 05:11:24;;;;;;;8.17;2.17;;;15.20;99.90;;;;;;5094627;28;20244;-33
2022/11/03 05:13:53;;;;;;;7.93;1.97;;;15.20;99.90;;;;;;5107412;28;20201;-33
2022/11/03 05:16:23;;;;;;;6.43;1.90;;;15.20;99.90;;;;;;5088835;28;20665;-33
2022/11/03 05:18:51;;;;;;;8.70;2.13;;;15.30;99.90;;;;;;5098516;28;20203;-33
2022/11/03 05:21:21;;;;;;;6.60;2.13;;;15.30;99.90;;;;;;5087302;28;20739;-33
2022/11/03 05:24:02;;;;;;;7.03;2.00;;;15.20;99.90;;;;;;5101069;28;20244;-33
2022/11/03 05:26:34;;;;;;;7.13;2.20;;;15.30;99.90;;;;;;5092874;28;20754;-33
2022/11/03 05:29:16;;;;;;;7.00;2.20;;;15.30;99.90;;;;;;5090080;28;20217;-33
2022/11/03 05:31:46;;;;;;;8.30;1.83;;;15.30;99.90;;;;;;5085971;28;20199;-33
2022/11/03 05:34:29;;;;;;;8.03;2.10;;;15.30;99.90;;;;;;5091399;28;20202;-33
2022/11/03 05:37:27;;;;;;;8.00;2.00;;;15.30;99.90;;;;;;5104101;28;20214;-33
2022/11/03 05:39:59;;;;;;;6.17;1.70;;;15.30;99.90;;;;;;5085608;28;20215;-33
2022/11/03 05:42:33;;;;;;;8.10;2.20;;;15.30;99.90;;;;;;5104978;28;20683;-33
2022/11/03 05:45:23;;;;;;;9.13;2.10;;;15.30;99.90;;;;;;5104690;28;20201;-33
2022/11/03 05:47:54;;;;;;;8.20;2.30;;;15.30;99.90;;;;;;5100723;28;20214;-33
2022/11/03 05:50:27;;;;;;;6.50;1.53;;;15.30;99.90;;;;;;5090030;28;20222;-33
2022/11/03 05:53:11;;;;;;;7.63;2.20;;;15.30;99.90;;;;;;5099989;28;20294;-33
2022/11/03 05:55:39;;;;;;;8.83;2.30;;;15.30;99.90;;;;;;5091477;28;20516;-33
2022/11/03 05:58:40;;;;;;;7.23;1.67;;;15.30;99.90;;;;;;5093464;28;20653;-33
2022/11/03 06:01:27;;;;;;;7.20;1.93;;;15.30;99.90;;;;;;5076385;28;20206;-33
2022/11/03 06:03:55;;;;;;;10.87;2.50;;;15.30;99.90;;;;;;5093616;28;20268;-32
2022/11/03 06:06:31;;;;;;;4.87;1.67;;;15.30;99.90;;;;;;5097729;28;20784;-33
2022/11/03 06:09:02;;;;;;;8.23;2.33;;;15.30;99.90;;;;;;5092111;28;20716;-33
2022/11/03 06:11:37;;;;;;;5.60;2.20;;;15.30;99.90;;;;;;5102992;27;20195;-33
2022/11/03 06:14:25;;;;;;;8.20;1.93;;;15.30;99.90;;;;;;5095877;28;20256;-33
2022/11/03 06:17:19;;;;;;;7.53;2.27;;;15.30;99.90;;;;;;5102410;28;20661;-33
2022/11/03 06:19:49;;;;;;;7.47;2.17;;;15.30;99.90;;;;;;5089847;28;20321;-33
2022/11/03 06:22:33;;;;;;;8.40;2.33;;;15.40;99.90;;;;;;5099164;28;20849;-33
2022/11/03 06:25:23;;;;;;;5.53;2.30;;;15.30;99.90;;;;;;5100397;28;20323;-33
2022/11/03 06:27:50;;;;;;;9.00;2.57;;;15.40;99.90;;;;;;5105343;28;20803;-32
2022/11/03 06:30:25;;;;;;;11.13;2.07;;;15.30;99.90;;;;;;5103888;28;20312;-33
2022/11/03 06:33:13;;;;;;;8.43;2.17;;;15.30;99.90;;;;;;5090350;28;20198;-33
2022/11/03 06:35:42;;;;;;;7.17;2.03;;;15.30;99.90;;;;;;5096349;28;20545;-33
2022/11/03 06:38:21;;;;;;;6.67;2.00;;;15.40;99.90;;;;;;5086989;28;20261;-33
2022/11/03 06:40:51;;;;;;;7.37;1.93;;;15.40;99.90;;;;;;5093692;28;20251;-33
2022/11/03 06:43:39;;;;;;;7.60;2.00;;;15.40;99.90;;;;;;5087204;28;20191;-33
2022/11/03 06:46:35;;;;;;;9.63;2.10;;;15.40;99.90;;;;;;5086641;28;20290;-33
2022/11/03 06:49:31;;;;;;;10.47;2.63;;;15.40;99.90;;;;;;5083926;28;20313;-33
2022/11/03 06:52:04;;;;;;;6.83;1.90;;;15.40;99.90;;;;;;5097491;28;20271;-33
2022/11/03 06:54:32;;;;;;;8.47;1.80;;;15.40;99.90;;;;;;5089843;28;20561;-32
2022/11/03 06:56:59;;;;;;;7.27;2.17;;;15.50;99.90;;;;;;5101143;28;20226;-33
2022/11/03 06:59:26;;;;;;;6.47;2.03;;;15.40;99.90;;;;;;5104437;28;20234;-32
2022/11/03 07:01:54;;;;;;;5.80;2.13;;;15.40;99.90;;;;;;5091102;28;20227;-32
2022/11/03 07:04:27;;;;;;;5.87;2.43;;;15.50;99.90;;;;;;5099979;28;20251;-32
2022/11/03 07:07:01;;;;;;;8.50;2.30;;;15.50;99.90;;;;;;5097946;28;20246;-33
2022/11/03 07:09:28;;;;;;;10.13;2.43;;;15.50;99.90;;;;;;5087154;28;20318;-33
2022/11/03 07:11:59;;;;;;;11.27;2.60;;;15.50;99.90;;;;;;5086828;28;20199;-32
2022/11/03 07:14:27;;;;;;;9.07;2.50;;;15.50;99.90;;;;;;5091896;28;20286;-33
2022/11/03 07:17:02;;;;;;;8.45;2.17;;;15.50;99.90;;;;;;5098304;28;20663;-33
2022/11/03 07:19:33;;;;;;;9.23;2.10;;;15.50;99.90;;;;;;5101820;28;20233;-33
2022/11/03 07:22:07;;;;;;;9.00;2.70;;;15.40;99.90;;;;;;5086520;28;20823;-33
2022/11/03 07:24:44;;;;;;;7.97;1.93;;;15.40;99.90;;;;;;5085311;28;20230;-32
2022/11/03 07:27:24;;;;;;;7.30;2.03;;;15.40;99.90;;;;;;5083483;28;20252;-33
2022/11/03 07:29:56;;;;;;;8.07;2.03;;;15.40;99.90;;;;;;5084452;28;20619;-32
2022/11/03 07:32:30;;;;;;;9.98;1.98;;;15.40;99.90;;;;;;5084153;28;20182;-33
2022/11/03 07:35:09;;;;;;;7.27;2.40;;;15.50;99.90;;;;;;5086041;28;20282;-33
2022/11/03 07:37:36;;;;;;;7.00;2.07;;;15.50;99.90;;;;;;5085757;28;20205;-33
2022/11/03 07:40:17;;;;;;;7.77;1.90;;;15.50;99.90;;;;;;5085347;28;20771;-32
2022/11/03 07:42:44;;;;;;;6.37;2.13;;;15.50;99.90;;;;;;5089858;28;20217;-32
2022/11/03 07:45:40;;;;;;;9.60;2.57;;;15.50;99.90;;;;;;5098194;28;20291;-33
2022/11/03 07:48:19;;;;;;;9.40;2.63;;;15.50;99.90;;;;;;5091546;28;20190;-33
2022/11/03 07:50:55;;;;;;;8.60;2.37;;;15.50;99.90;;;;;;5091616;28;20246;-33
2022/11/03 07:53:49;;;;;;;7.40;2.13;;;15.50;99.90;;;;;;5083284;28;20660;-33
2022/11/03 07:56:33;;;;;;;9.00;2.40;;;15.50;99.90;;;;;;5086915;28;20198;-32
2022/11/03 07:59:10;;;;;;;12.10;2.30;;;15.50;99.90;;;;;;5096795;28;20218;-32
2022/11/03 08:01:41;;;;;;;7.20;1.87;;;15.50;99.90;;;;;;5086665;28;20229;-32
2022/11/03 08:04:20;;;;;;;11.07;2.70;;;15.60;99.90;;;;;;5099262;28;20198;-33
2022/11/03 08:06:48;;;;;;;13.87;2.97;;;15.50;99.90;;;;;;5092610;28;20198;-33
2022/11/03 08:09:15;;;;;;;14.40;2.73;;;15.60;99.90;;;;;;5103403;28;20607;-33
2022/11/03 08:11:43;;;;;;;7.97;1.90;;;15.60;99.90;;;;;;5100875;28;20562;-33
2022/11/03 08:14:11;;;;;;;8.40;2.27;;;15.60;99.90;;;;;;5091297;28;20285;-33
2022/11/03 08:16:40;;;;;;;10.43;1.97;;;15.60;99.90;;;;;;5100885;28;20267;-33
2022/11/03 08:19:08;;;;;;;11.70;2.57;;;15.60;99.90;;;;;;5081792;28;20826;-33
2022/11/03 08:21:35;;;;;;;19.30;4.27;;;15.60;99.90;;;;;;5092072;28;20229;-33
2022/11/03 08:24:03;;;;;;;10.20;2.90;;;15.60;99.90;;;;;;5093699;28;20303;-33
2022/11/03 08:26:30;;;;;;;7.50;1.80;;;15.60;99.90;;;;;;5082030;28;20703;-33
2022/11/03 08:28:57;;;;;;;6.97;2.10;;;15.60;99.90;;;;;;5086332;28;20203;-33
2022/11/03 08:31:25;;;;;;;7.93;2.27;;;15.70;99.90;;;;;;5093017;28;20230;-33
2022/11/03 08:33:54;;;;;;;5.93;1.97;;;15.70;99.90;;;;;;5093686;28;20666;-33
2022/11/03 08:36:21;;;;;;;6.00;2.30;;;15.70;99.90;;;;;;5081462;28;20391;-33
2022/11/03 08:38:48;;;;;;;7.13;2.03;;;15.70;99.90;;;;;;5083489;28;20590;-32
2022/11/03 08:41:16;;;;;;;15.53;3.20;;;15.80;99.90;;;;;;5084158;28;20201;-33
2022/11/03 08:43:43;;;;;;;7.88;2.20;;;15.80;99.90;;;;;;5093553;28;20194;-32
2022/11/03 08:46:10;;;;;;;11.57;2.70;;;15.80;99.90;;;;;;5083062;28;20220;-33
2022/11/03 08:48:44;;;;;;;17.13;3.30;;;15.90;99.90;;;;;;5084237;28;20195;-33
2022/11/03 08:51:12;;;;;;;21.43;3.83;;;15.90;99.90;;;;;;5094520;28;20217;-33
2022/11/03 08:53:43;;;;;;;11.87;3.60;;;15.90;99.90;;;;;;5103593;28;20305;-33
2022/11/03 08:56:11;;;;;;;15.00;2.43;;;15.90;99.90;;;;;;5101760;28;20214;-33
2022/11/03 08:58:42;;;;;;;7.50;1.90;;;15.90;99.90;;;;;;5100053;28;20198;-33
2022/11/03 09:01:11;;;;;;;5.47;1.80;;;15.90;99.90;;;;;;5094239;28;20203;-33
2022/11/03 09:03:39;;;;;;;11.20;2.37;;;16.00;99.90;;;;;;5098118;28;20215;-33
2022/11/03 09:06:08;;;;;;;6.77;1.90;;;15.90;99.90;;;;;;5081807;28;20869;-33
2022/11/03 09:08:38;;;;;;;6.13;2.50;;;15.90;99.90;;;;;;5088424;28;20245;-33
2022/11/03 09:11:25;;;;;;;6.70;1.90;;;16.00;99.90;;;;;;5086870;28;20739;-33
2022/11/03 09:13:52;;;;;;;6.53;1.90;;;15.90;99.90;;;;;;5086054;28;20298;-33
2022/11/03 09:16:19;;;;;;;5.72;1.83;;;15.90;99.90;;;;;;5101627;28;20205;-33
2022/11/03 09:18:46;;;;;;;6.20;2.60;;;15.90;99.90;;;;;;5093475;27;20203;-33
2022/11/03 09:21:14;;;;;;;4.20;2.00;;;16.00;99.90;;;;;;5094950;28;20238;-33
2022/11/03 09:23:41;;;;;;;9.30;1.93;;;15.90;99.90;;;;;;5107447;28;20202;-32
2022/11/03 09:26:08;;;;;;;4.38;1.30;;;16.00;99.90;;;;;;5094834;28;20680;-32
2022/11/03 09:28:35;;;;;;;9.50;2.20;;;16.00;99.90;;;;;;5086509;28;20207;-32
2022/11/03 09:31:02;;;;;;;7.93;2.10;;;16.00;99.90;;;;;;5089664;28;20240;-32
2022/11/03 09:33:32;;;;;;;8.93;2.10;;;16.00;99.90;;;;;;5087548;28;20195;-33
2022/11/03 09:36:01;;;;;;;4.53;1.60;;;16.00;99.90;;;;;;5084140;28;20639;-33
2022/11/03 09:38:28;;;;;;;6.20;1.77;;;16.10;99.90;;;;;;5100525;27;20730;-33
2022/11/03 09:40:55;;;;;;;5.17;1.63;;;16.00;99.90;;;;;;5087444;28;20201;-33
2022/11/03 09:43:23;;;;;;;5.57;1.80;;;16.10;99.90;;;;;;5087229;28;20296;-33
2022/11/03 09:45:50;;;;;;;5.57;1.80;;;16.10;99.90;;;;;;5084507;28;20349;-33
2022/11/03 09:48:17;;;;;;;7.43;1.80;;;16.10;99.90;;;;;;5085218;28;20264;-32
2022/11/03 09:50:48;;;;;;;6.50;2.07;;;16.10;99.90;;;;;;5089224;28;20223;-33
2022/11/03 09:53:15;;;;;;;5.67;1.73;;;16.10;99.90;;;;;;5093402;28;20202;-32
2022/11/03 09:55:42;;;;;;;7.67;1.80;;;16.20;99.90;;;;;;5091523;28;20220;-32
2022/11/03 09:58:15;;;;;;;7.22;1.85;;;16.20;99.90;;;;;;5095355;28;20186;-32
2022/11/03 10:00:45;;;;;;;10.93;2.13;;;16.20;99.90;;;;;;5089847;28;20279;-32
2022/11/03 10:03:15;;;;;;;4.87;1.53;;;16.20;99.90;;;;;;5089646;28;20199;-32
2022/11/03 10:05:44;;;;;;;7.63;1.80;;;16.30;99.90;;;;;;5096994;28;20619;-32
2022/11/03 10:08:22;;;;;;;4.53;1.30;;;16.30;99.90;;;;;;5094704;28;20205;-32
2022/11/03 10:10:50;;;;;;;4.05;1.50;;;16.40;99.90;;;;;;5094974;28;20301;-32
2022/11/03 10:13:22;;;;;;;5.13;2.08;;;16.40;99.90;;;;;;5090836;28;20218;-32
2022/11/03 10:15:49;;;;;;;4.13;1.50;;;16.50;99.90;;;;;;5087326;28;20210;-33
2022/11/03 10:18:19;;;;;;;6.18;1.90;;;16.50;99.90;;;;;;5100123;28;20195;-33
2022/11/03 10:20:46;;;;;;;6.50;1.60;;;16.60;99.90;;;;;;5087651;28;20231;-33
2022/11/03 10:23:13;;;;;;;6.47;1.73;;;16.60;99.90;;;;;;5098413;28;20195;-33
2022/11/03 10:25:42;;;;;;;7.97;2.00;;;16.60;99.90;;;;;;5091807;28;20302;-32
2022/11/03 10:28:22;;;;;;;8.48;2.78;;;16.60;99.90;;;;;;5092661;28;20313;-32
2022/11/03 10:31:05;;;;;;;5.45;1.80;;;16.70;99.90;;;;;;5097213;28;20644;-33
2022/11/03 10:33:40;;;;;;;9.67;1.93;;;16.70;99.90;;;;;;5104041;28;20190;-33
2022/11/03 10:36:14;;;;;;;7.13;1.75;;;16.80;99.90;;;;;;5089109;28;20198;-32
2022/11/03 10:38:42;;;;;;;4.20;1.67;;;16.80;99.90;;;;;;5089693;28;20290;-32
2022/11/03 10:41:13;;;;;;;3.08;1.42;;;16.90;99.90;;;;;;5085278;28;20714;-32
2022/11/03 10:43:43;;;;;;;10.70;2.00;;;16.90;99.90;;;;;;5094531;28;20204;-33
2022/11/03 10:46:11;;;;;;;4.40;1.77;;;17.00;99.90;;;;;;5091612;28;20653;-33
2022/11/03 10:49:10;;;;;;;6.05;1.50;;;17.10;99.90;;;;;;5083905;28;20218;-33
2022/11/03 10:51:41;;;;;;;4.72;1.83;;;17.10;99.90;;;;;;5084027;28;20219;-33
2022/11/03 10:54:15;;;;;;;4.65;1.70;;;17.20;99.90;;;;;;5084997;28;20202;-33
2022/11/03 10:56:43;;;;;;;6.30;1.60;;;17.20;99.90;;;;;;5093003;28;20186;-32
2022/11/03 10:59:18;;;;;;;3.42;1.30;;;17.20;99.90;;;;;;5100645;28;20238;-33
2022/11/03 11:01:45;;;;;;;5.47;1.67;;;17.20;99.90;;;;;;5103201;28;20770;-32
2022/11/03 11:04:18;;;;;;;4.00;1.40;;;17.30;99.90;;;;;;5089286;28;20293;-33
2022/11/03 11:06:46;;;;;;;3.00;1.67;;;17.30;99.90;;;;;;5088480;28;20198;-33
2022/11/03 11:09:26;;;;;;;2.88;1.88;;;17.30;99.90;;;;;;5093273;27;20210;-33
2022/11/03 11:12:15;;;;;;;4.13;1.50;;;17.30;99.90;;;;;;5095160;28;20305;-33
2022/11/03 11:14:55;;;;;;;2.83;1.37;;;17.30;99.90;;;;;;5089745;28;20559;-33
2022/11/03 11:17:44;;;;;;;3.33;1.40;;;17.30;99.90;;;;;;5084790;28;20356;-33
2022/11/03 11:20:22;;;;;;;5.90;1.98;;;17.40;99.90;;;;;;5088443;28;20320;-33
2022/11/03 11:22:52;;;;;;;6.10;1.63;;;17.40;99.90;;;;;;5093165;28;20298;-33
2022/11/03 11:25:58;;;;;;;3.95;1.40;;;17.40;99.90;;;;;;5087624;28;20236;-33
2022/11/03 11:28:25;;;;;;;3.05;1.33;;;17.50;99.90;;;;;;5093093;28;20263;-33
2022/11/03 11:30:55;;;;;;;2.72;1.30;;;17.50;99.90;;;;;;5098107;28;20209;-33
2022/11/03 11:33:25;;;;;;;4.05;1.63;;;17.50;99.90;;;;;;5093051;28;20206;-33
2022/11/03 11:35:52;;;;;;;3.92;1.40;;;17.60;99.90;;;;;;5093396;28;20575;-33
2022/11/03 11:39:26;;;;;;;6.78;1.77;;;17.60;99.90;;;;;;5085504;28;20195;-34
2022/11/03 11:42:18;;;;;;;5.13;1.58;;;17.70;99.90;;;;;;5029262;28;20349;-34
2022/11/03 11:44:55;;;;;;;4.18;1.50;;;17.70;99.90;;;;;;5059273;28;20851;-32
2022/11/03 11:47:25;;;;;;;5.95;1.40;;;17.80;99.90;;;;;;5077806;28;20293;-33
2022/11/03 11:50:13;;;;;;;3.05;1.40;;;17.80;99.90;;;;;;5087061;28;20211;-33
2022/11/03 11:52:59;;;;;;;4.72;1.42;;;17.80;99.90;;;;;;5083889;28;20302;-33
2022/11/03 11:55:49;;;;;;;4.40;1.40;;;17.90;99.90;;;;;;5086883;28;20280;-32
2022/11/03 11:58:21;;;;;;;7.05;1.60;;;17.90;99.90;;;;;;5097651;28;21043;-32
2022/11/03 12:01:02;;;;;;;2.90;1.40;;;18.00;99.90;;;;;;5083907;28;20794;-32
2022/11/03 12:03:41;;;;;;;4.15;1.23;;;18.10;99.90;;;;;;5082533;28;20227;-32
2022/11/03 12:06:12;;;;;;;5.53;1.80;;;18.10;99.90;;;;;;5084473;28;20203;-32
2022/11/03 12:08:40;;;;;;;3.63;1.53;;;18.20;99.90;;;;;;5087769;28;20218;-33
2022/11/03 12:11:10;;;;;;;6.35;1.35;;;18.30;99.90;;;;;;5088986;28;20214;-33
2022/11/03 12:13:50;;;;;;;5.05;1.55;;;18.30;99.90;;;;;;5096972;28;20209;-33
2022/11/03 12:16:34;;;;;;;5.95;1.50;;;18.30;99.90;;;;;;5091010;28;21072;-33
2022/11/03 12:19:35;;;;;;;5.18;1.55;;;18.40;99.90;;;;;;5101727;28;20218;-33
2022/11/03 12:22:08;;;;;;;5.78;1.88;;;18.40;99.90;;;;;;5096313;28;20210;-33
2022/11/03 12:24:46;;;;;;;4.30;1.73;;;18.40;99.90;;;;;;5089910;28;20238;-33
2022/11/03 12:27:17;;;;;;;5.97;1.50;;;18.40;99.90;;;;;;5083411;28;20194;-33
2022/11/03 12:29:45;;;;;;;2.65;1.60;;;18.50;99.90;;;;;;5084647;28;20546;-32
2022/11/03 12:32:12;;;;;;;2.08;1.08;;;18.50;99.90;;;;;;5090022;28;20219;-33
2022/11/03 12:34:59;;;;;;;6.20;1.83;;;18.50;99.90;;;;;;5085024;28;20195;-35
2022/11/03 12:37:26;;;;;;;5.68;1.52;;;18.50;99.90;;;;;;5084148;28;20276;-33
2022/11/03 12:39:53;;;;;;;4.38;1.83;;;18.50;99.90;;;;;;5084208;28;20195;-32
2022/11/03 12:42:23;;;;;;;4.80;1.80;;;18.40;99.90;;;;;;5084305;28;20675;-33
2022/11/03 12:44:50;;;;;;;5.82;1.80;;;18.40;99.90;;;;;;5086267;28;20226;-33
2022/11/03 12:47:21;;;;;;;2.88;1.27;;;18.40;99.90;;;;;;5084301;28;20199;-33
2022/11/03 12:49:48;;;;;;;3.15;1.25;;;18.40;99.90;;;;;;5101932;28;20624;-33
2022/11/03 12:52:15;;;;;;;6.05;1.92;;;18.40;99.90;;;;;;5090570;28;20548;-33
2022/11/03 12:54:43;;;;;;;3.90;1.58;;;18.30;99.90;;;;;;5087824;28;20293;-33
2022/11/03 12:57:10;;;;;;;3.05;1.52;;;18.30;99.90;;;;;;5087705;28;20425;-33
2022/11/03 12:59:38;;;;;;;4.97;1.85;;;18.30;99.90;;;;;;5087697;28;20516;-33
2022/11/03 13:02:07;;;;;;;9.50;1.95;;;18.20;99.90;;;;;;5086148;28;20260;-33
2022/11/03 13:04:34;;;;;;;6.63;1.83;;;18.20;99.90;;;;;;5088278;28;20529;-33
2022/11/03 13:07:01;;;;;;;4.45;1.60;;;18.20;99.90;;;;;;5086286;28;20238;-33
2022/11/03 13:09:31;;;;;;;3.40;1.50;;;18.20;99.90;;;;;;5098547;28;20297;-33
2022/11/03 13:14:44;;;;;;;6.47;1.80;;;18.10;99.90;;;;;;5087513;28;20677;-32
2022/11/03 13:17:14;;;;;;;8.07;1.80;;;18.10;99.90;;;;;;5087565;28;20685;-33
2022/11/03 13:19:42;;;;;;;6.57;1.77;;;18.10;99.90;;;;;;5085273;28;20235;-33
2022/11/03 13:22:09;;;;;;;5.15;1.83;;;18.00;99.90;;;;;;5105032;28;20201;-33
2022/11/03 13:24:36;;;;;;;4.50;1.30;;;18.00;99.90;;;;;;5098237;28;20207;-33
2022/11/03 13:27:04;;;;;;;7.57;1.40;;;18.00;99.90;;;;;;5102030;28;20757;-33
2022/11/03 13:29:31;;;;;;;4.07;1.50;;;17.90;99.90;;;;;;5106006;28;20256;-33
2022/11/03 13:32:03;;;;;;;6.65;1.70;;;17.90;99.90;;;;;;5098042;27;20351;-33
2022/11/03 13:34:30;;;;;;;5.32;1.40;;;17.90;99.90;;;;;;5098251;28;20627;-33
2022/11/03 13:37:00;;;;;;;6.93;1.87;;;17.80;99.90;;;;;;5099276;28;20224;-33
2022/11/03 13:39:27;;;;;;;8.50;2.03;;;17.80;99.90;;;;;;5087860;28;20202;-33